Time;durP1;ratioP1;P1;durP2;ratioP2;P2;SDS_P1;SDS_P2;PMS_P1;PMS_P2;Temp;Humidity;BMP_temperature;BMP_pressure;BME280_temperature;BME280_humidity;BME280_pressure;Samples;Min_cycle;Max_cycle;Signal;HPM_P1;HPM_P2
2023/02/19 00:01:42;;;;;;;1.00;0.75;;;;;;;20.99;38.00;101500.94;5023434;28;20037;-84
2023/02/19 00:04:15;;;;;;;0.95;0.95;;;;;;;20.93;37.97;101492.84;5027813;28;20876;-84
2023/02/19 00:06:42;;;;;;;0.93;0.88;;;;;;;20.87;38.22;101504.13;5028542;28;20461;-84
2023/02/19 00:09:09;;;;;;;1.25;1.15;;;;;;;20.94;37.97;101505.91;5021274;28;20033;-84
2023/02/19 00:11:35;;;;;;;4.22;3.17;;;;;;;20.90;38.04;101499.31;5022906;28;20041;-84
2023/02/19 00:14:02;;;;;;;0.70;0.70;;;;;;;20.94;38.07;101497.97;5023711;28;20415;-84
2023/02/19 00:16:30;;;;;;;1.33;0.88;;;;;;;20.92;38.11;101497.31;5028935;28;20216;-84
2023/02/19 00:18:58;;;;;;;1.10;1.00;;;;;;;20.93;37.99;101496.31;5020627;28;20083;-84
2023/02/19 00:21:24;;;;;;;1.48;1.00;;;;;;;20.98;37.93;101501.09;5021084;28;20042;-84
2023/02/19 00:23:57;;;;;;;0.98;0.60;;;;;;;20.95;38.09;101501.44;5019149;28;20702;-83
2023/02/19 00:26:24;;;;;;;0.90;0.88;;;;;;;20.92;37.80;101494.66;5019219;28;20525;-84
2023/02/19 00:28:50;;;;;;;0.80;0.70;;;;;;;20.92;38.08;101496.50;5018315;28;20051;-84
2023/02/19 00:31:20;;;;;;;1.27;0.85;;;;;;;21.01;37.86;101506.91;5023616;28;20057;-84
2023/02/19 00:33:48;;;;;;;0.55;0.55;;;;;;;20.82;38.09;101504.63;5024274;28;20041;-84
2023/02/19 00:36:14;;;;;;;1.73;0.88;;;;;;;20.89;38.15;101505.59;5018569;28;20034;-85
2023/02/19 00:38:42;;;;;;;0.75;0.75;;;;;;;20.93;38.10;101493.69;5023459;28;20036;-84
2023/02/19 00:41:17;;;;;;;0.80;0.80;;;;;;;20.86;37.96;101505.13;5030585;28;20033;-84
2023/02/19 00:43:58;;;;;;;1.15;0.70;;;;;;;20.89;38.03;101491.53;5021424;28;20038;-84
2023/02/19 00:46:29;;;;;;;0.60;0.50;;;;;;;20.81;38.10;101492.38;5021460;28;20041;-84
2023/02/19 00:48:56;;;;;;;1.02;0.80;;;;;;;20.89;38.15;101488.91;5021117;28;20045;-84
2023/02/19 00:51:25;;;;;;;1.10;0.75;;;;;;;20.86;38.15;101491.91;5021057;28;20089;-84
2023/02/19 00:53:51;;;;;;;0.55;0.55;;;;;;;20.78;38.20;101490.91;5025100;28;20041;-84
2023/02/19 00:56:17;;;;;;;0.98;0.60;;;;;;;20.85;38.02;101488.41;5012332;28;20044;-85
2023/02/19 00:58:42;;;;;;;0.73;0.73;;;;;;;20.85;38.12;101492.88;5025174;28;20033;-85
2023/02/19 01:01:09;;;;;;;1.52;1.00;;;;;;;20.86;37.84;101476.00;5026575;28;20041;-84
2023/02/19 01:03:36;;;;;;;1.08;0.77;;;;;;;20.85;38.02;101492.88;5026449;28;20034;-85
2023/02/19 01:06:03;;;;;;;0.65;0.65;;;;;;;20.85;37.88;101485.78;5020190;28;20047;-85
2023/02/19 01:08:32;;;;;;;0.75;0.75;;;;;;;20.88;37.95;101490.72;5024175;28;20041;-84
2023/02/19 01:11:01;;;;;;;0.60;0.60;;;;;;;20.87;38.21;101478.47;5042596;28;20060;-83
2023/02/19 01:13:27;;;;;;;0.50;0.50;;;;;;;20.80;38.41;101485.44;5022519;28;20041;-84
2023/02/19 01:15:53;;;;;;;0.75;0.70;;;;;;;20.79;38.17;101479.31;5035831;28;20033;-84
2023/02/19 01:18:19;;;;;;;0.57;0.57;;;;;;;20.78;38.07;101474.19;5022987;28;20049;-84
2023/02/19 01:20:45;;;;;;;1.30;0.60;;;;;;;20.85;38.00;101469.06;5026714;28;20069;-84
2023/02/19 01:23:12;;;;;;;0.80;0.60;;;;;;;20.82;38.05;101478.16;5022311;28;20054;-84
2023/02/19 01:25:41;;;;;;;0.60;0.60;;;;;;;20.79;38.15;101476.66;5026816;28;20488;-83
2023/02/19 01:28:07;;;;;;;0.60;0.60;;;;;;;20.76;38.13;101469.06;5030945;28;20034;-84
2023/02/19 01:30:37;;;;;;;0.98;0.63;;;;;;;20.80;37.94;101475.66;5031801;28;20104;-84
2023/02/19 01:33:07;;;;;;;2.38;2.25;;;;;;;20.77;38.15;101480.50;5025093;28;20689;-84
2023/02/19 01:35:36;;;;;;;1.73;1.63;;;;;;;20.77;38.17;101480.50;5026006;28;20053;-84
2023/02/19 01:38:02;;;;;;;6.35;5.85;;;;;;;20.77;38.18;101473.38;5031119;28;20021;-84
2023/02/19 01:40:28;;;;;;;0.68;0.60;;;;;;;20.70;38.23;101487.47;5032875;28;20036;-84
2023/02/19 01:42:53;;;;;;;0.90;0.65;;;;;;;20.75;38.08;101482.47;5027385;28;20068;-84
2023/02/19 01:45:31;;;;;;;1.05;0.63;;;;;;;20.79;38.07;101487.25;5029465;28;20042;-85
2023/02/19 01:48:20;;;;;;;0.50;0.50;;;;;;;20.69;38.18;101491.09;5029520;28;20057;-83
2023/02/19 01:50:58;;;;;;;0.70;0.70;;;;;;;20.62;38.35;101492.75;5027131;28;20095;-83
2023/02/19 01:53:32;;;;;;;1.33;0.60;;;;;;;20.77;38.15;101506.97;5026297;28;20112;-84
2023/02/19 01:56:00;;;;;;;0.95;0.75;;;;;;;20.64;38.29;101504.81;5026970;28;20048;-83
2023/02/19 01:58:30;;;;;;;0.57;0.57;;;;;;;20.61;38.44;101509.63;5008606;28;20034;-84
2023/02/19 02:00:55;;;;;;;0.73;0.73;;;;;;;20.71;38.23;101513.75;5031545;28;20468;-86
2023/02/19 02:03:21;;;;;;;0.70;0.70;;;;;;;20.70;38.18;101506.81;5024871;28;20045;-84
2023/02/19 02:06:02;;;;;;;0.95;0.70;;;;;;;20.67;38.14;101528.34;5023635;28;20053;-84
2023/02/19 02:11:14;;;;;;;0.90;0.90;;;;;;;20.60;38.53;101534.44;5049640;28;20037;-83
2023/02/19 02:13:39;;;;;;;0.73;0.73;;;;;;;20.65;38.27;101535.63;5024236;28;20060;-84
2023/02/19 02:16:14;;;;;;;0.63;0.63;;;;;;;20.57;38.47;101532.97;5028032;28;20084;-84
2023/02/19 02:18:48;;;;;;;0.52;0.45;;;;;;;20.67;38.26;101543.38;5024369;28;20120;-84
2023/02/19 02:21:45;;;;;;;1.00;0.60;;;;;;;20.75;38.01;101551.31;5026104;28;20061;-86
2023/02/19 02:24:26;;;;;;;0.47;0.47;;;;;;;20.71;38.27;101555.28;5026800;28;20124;-84
2023/02/19 02:27:14;;;;;;;0.40;0.35;;;;;;;20.63;38.16;101558.75;5027889;28;20099;-84
2023/02/19 02:29:43;;;;;;;0.30;0.30;;;;;;;20.62;38.29;101562.38;5025645;28;20107;-84
2023/02/19 02:32:14;;;;;;;0.90;0.47;;;;;;;20.66;38.05;101560.25;5026527;28;20368;-85
2023/02/19 02:34:49;;;;;;;0.32;0.32;;;;;;;20.68;38.17;101564.38;5027774;28;20037;-85
2023/02/19 02:37:15;;;;;;;0.60;0.50;;;;;;;20.57;38.15;101570.00;5024152;28;20040;-85
2023/02/19 02:39:44;;;;;;;0.63;0.50;;;;;;;20.65;38.19;101582.44;5027554;28;20033;-84
2023/02/19 02:42:28;;;;;;;0.52;0.52;;;;;;;20.60;38.29;101588.19;5024277;28;20042;-84
2023/02/19 02:45:35;;;;;;;0.52;0.40;;;;;;;20.53;38.41;101584.56;5019357;28;20053;-85
2023/02/19 02:48:13;;;;;;;0.88;0.77;;;;;;;20.57;38.28;101582.41;5024695;28;20380;-85
2023/02/19 02:50:49;;;;;;;6.60;5.97;;;;;;;20.57;38.19;101585.88;5020414;28;20049;-84
2023/02/19 02:56:05;;;;;;;0.45;0.45;;;;;;;20.51;38.23;101594.50;5025149;28;20072;-85
2023/02/19 02:58:33;;;;;;;0.20;0.20;;;;;;;20.65;38.05;101587.72;5005407;28;20033;-84
2023/02/19 03:04:00;;;;;;;0.50;0.50;;;;;;;20.57;38.28;101595.66;5018591;28;20054;-85
2023/02/19 03:06:30;;;;;;;0.30;0.30;;;;;;;20.64;37.92;101602.75;5022253;28;20714;-85
2023/02/19 03:09:08;;;;;;;0.80;0.73;;;;;;;20.60;38.15;101621.78;5022280;28;20471;-85
2023/02/19 03:20:20;;;;;;;0.30;0.30;;;;;;;20.58;38.08;101653.69;5020281;28;20052;-85
2023/02/19 03:22:48;;;;;;;4.28;4.07;;;;;;;20.56;38.00;101657.50;5015831;28;20037;-85
2023/02/19 03:28:05;;;;;;;0.75;0.75;;;;;;;20.63;38.14;101663.78;5021155;28;20037;-84
2023/02/19 03:30:36;;;;;;;0.65;0.65;;;;;;;20.61;37.99;101663.94;5019487;28;20034;-84
2023/02/19 03:33:08;;;;;;;1.30;0.68;;;;;;;20.62;37.97;101656.81;5017742;28;20033;-84
2023/02/19 03:35:42;;;;;;;0.15;0.15;;;;;;;20.55;38.19;101663.78;5001670;28;20033;-84
2023/02/19 03:38:17;;;;;;;0.50;0.50;;;;;;;20.46;38.31;101670.88;5015186;28;20610;-85
2023/02/19 03:40:57;;;;;;;0.55;0.40;;;;;;;20.45;38.16;101662.09;5021616;28;20107;-84
2023/02/19 03:43:37;;;;;;;0.40;0.40;;;;;;;20.46;38.21;101671.69;5017786;28;20076;-84
2023/02/19 03:46:10;;;;;;;0.65;0.30;;;;;;;20.58;37.99;101676.69;5016810;28;20125;-84
2023/02/19 03:48:40;;;;;;;20.15;18.33;;;;;;;20.49;38.17;101660.81;5010079;28;20119;-83
2023/02/19 03:51:19;;;;;;;1.70;1.60;;;;;;;20.54;38.19;101689.41;5015288;28;20025;-84
2023/02/19 03:54:10;;;;;;;0.20;0.10;;;;;;;20.47;38.07;101689.25;5017640;28;20040;-84
2023/02/19 03:56:49;;;;;;;0.70;0.70;;;;;;;20.61;37.92;101703.63;5019118;28;20042;-85
2023/02/19 03:59:36;;;;;;;150.63;118.77;;;;;;;20.48;38.01;101711.25;5013906;28;20045;-85
2023/02/19 04:02:09;;;;;;;73.47;66.63;;;;;;;20.40;38.16;101713.81;5012476;28;20028;-85
2023/02/19 04:04:38;;;;;;;220.63;159.10;;;;;;;20.45;38.11;101730.06;5035143;28;20065;-84
2023/02/19 04:07:04;;;;;;;1.10;0.40;;;;;;;20.47;38.17;101731.59;5021445;28;20026;-84
2023/02/19 04:09:42;;;;;;;136.80;99.38;;;;;;;20.45;38.04;101722.13;5017932;28;20465;-83
2023/02/19 04:12:13;;;;;;;0.55;0.55;;;;;;;20.44;38.13;101728.41;5016667;28;20438;-85
2023/02/19 04:14:45;;;;;;;2.47;2.30;;;;;;;20.50;38.03;101728.59;5012801;28;20156;-83
2023/02/19 04:17:24;;;;;;;14.90;13.35;;;;;;;20.51;37.99;101732.09;5014060;28;20536;-85
2023/02/19 04:19:51;;;;;;;9.05;8.20;;;;;;;20.43;38.24;101734.69;5016679;28;20041;-83
2023/02/19 04:22:18;;;;;;;1.30;1.20;;;;;;;20.37;38.19;101746.72;5024386;28;20045;-84
2023/02/19 04:24:50;;;;;;;14.60;13.25;;;;;;;20.43;38.05;101754.03;5022303;28;20037;-86
2023/02/19 04:27:16;;;;;;;6.13;5.68;;;;;;;20.45;38.11;101746.75;5017181;28;20129;-84
2023/02/19 04:29:42;;;;;;;6.38;5.82;;;;;;;20.42;38.11;101740.97;5020195;28;20053;-86
2023/02/19 04:32:11;;;;;;;20.73;18.52;;;;;;;20.41;38.08;101748.09;5022175;28;20029;-86
2023/02/19 04:34:37;;;;;;;0.28;0.28;;;;;;;20.42;38.09;101762.13;5022843;28;20045;-86
2023/02/19 04:37:03;;;;;;;0.05;0.05;;;;;;;20.36;38.23;101766.22;5018697;28;20033;-85
2023/02/19 04:39:28;;;;;;;477.10;332.15;;;;;;;20.40;38.17;101777.31;5019936;28;20041;-86
2023/02/19 04:41:54;;;;;;;0.30;0.30;;;;;;;20.48;37.91;101780.03;5021905;28;20041;-84
2023/02/19 04:44:19;;;;;;;0.55;0.10;;;;;;;20.45;37.96;101789.09;5022562;28;20049;-84
2023/02/19 04:46:45;;;;;;;0.20;0.20;;;;;;;20.40;38.07;101796.66;5019781;28;20125;-85
2023/02/19 04:49:10;;;;;;;0.20;0.20;;;;;;;20.37;38.14;101804.94;5019613;28;20073;-85
2023/02/19 04:51:37;;;;;;;0.10;0.10;;;;;;;20.39;38.12;101816.16;5017830;28;20550;-85
2023/02/19 04:54:02;;;;;;;0.10;0.10;;;;;;;20.47;37.85;101815.41;5020279;28;20021;-85
2023/02/19 04:56:28;;;;;;;0.10;0.10;;;;;;;20.39;38.19;101816.16;5021126;28;20038;-85
2023/02/19 04:58:54;;;;;;;0.15;0.15;;;;;;;20.32;38.08;101811.69;5018224;28;20104;-84
2023/02/19 05:01:20;;;;;;;0.10;0.10;;;;;;;20.36;38.19;101818.31;5017224;28;20092;-85
2023/02/19 05:03:45;;;;;;;0.00;0.00;;;;;;;20.38;38.10;101827.75;5021661;28;20462;-85
2023/02/19 05:06:12;;;;;;;0.10;0.10;;;;;;;20.41;37.89;101831.91;5017151;28;20049;-85
2023/02/19 05:08:38;;;;;;;0.00;0.00;;;;;;;20.43;37.90;101833.41;5023707;28;20049;-86
2023/02/19 05:11:07;;;;;;;0.13;0.13;;;;;;;20.30;38.15;101837.47;5021351;28;20041;-87
2023/02/19 05:13:32;;;;;;;0.00;0.00;;;;;;;20.32;38.11;101848.72;5020239;28;20184;-86
2023/02/19 05:16:14;;;;;;;2.88;2.67;;;;;;;20.37;38.05;101864.94;5018287;28;20046;-86
2023/02/19 05:18:41;;;;;;;0.20;0.20;;;;;;;20.39;37.94;101868.25;5019636;28;20137;-86
2023/02/19 05:21:08;;;;;;;0.10;0.10;;;;;;;20.36;38.01;101872.03;5017169;28;20041;-86
2023/02/19 05:23:34;;;;;;;0.17;0.17;;;;;;;20.40;38.02;101869.91;5017750;28;20037;-86
2023/02/19 05:26:07;;;;;;;0.17;0.17;;;;;;;20.32;38.15;101881.28;5017682;28;20107;-86
2023/02/19 05:28:33;;;;;;;0.13;0.13;;;;;;;20.27;38.17;101883.56;5016011;28;20793;-86
2023/02/19 05:31:05;;;;;;;0.03;0.03;;;;;;;20.37;37.93;101899.34;5021689;28;20116;-86
2023/02/19 05:33:30;;;;;;;0.22;0.22;;;;;;;20.30;38.16;101885.09;5010600;28;20041;-86
2023/02/19 05:35:56;;;;;;;0.00;0.00;;;;;;;20.30;38.17;101911.53;5020525;28;20041;-86
2023/02/19 05:38:22;;;;;;;0.10;0.10;;;;;;;20.20;38.25;101904.53;5022548;28;20049;-86
2023/02/19 05:40:48;;;;;;;0.10;0.10;;;;;;;20.26;38.23;101907.53;5026180;28;20487;-87
2023/02/19 05:43:14;;;;;;;0.08;0.08;;;;;;;20.26;38.26;101905.69;5019177;28;20079;-86
2023/02/19 05:45:40;;;;;;;0.03;0.03;;;;;;;20.35;37.92;101910.06;5038853;28;20030;-86
2023/02/19 05:48:06;;;;;;;0.20;0.20;;;;;;;20.26;37.96;101900.41;5019327;28;20037;-86
2023/02/19 05:50:34;;;;;;;0.22;0.22;;;;;;;20.22;38.16;101912.31;5025145;28;20037;-86
2023/02/19 05:53:10;;;;;;;0.05;0.05;;;;;;;20.32;37.94;101925.44;5017159;28;20041;-86
2023/02/19 05:55:36;;;;;;;0.10;0.10;;;;;;;20.18;38.31;101929.47;5024852;28;20038;-86
2023/02/19 05:58:02;;;;;;;0.40;0.15;;;;;;;20.20;38.05;101920.38;5019292;28;20120;-86
2023/02/19 06:00:27;;;;;;;0.20;0.20;;;;;;;20.18;38.15;101932.13;5020231;28;20034;-86
2023/02/19 06:02:53;;;;;;;0.20;0.20;;;;;;;20.17;38.19;101930.47;5021461;28;20496;-85
2023/02/19 06:05:19;;;;;;;0.10;0.10;;;;;;;20.22;38.03;101934.28;5021076;28;20065;-85
2023/02/19 06:07:45;;;;;;;0.20;0.20;;;;;;;20.21;38.24;101940.56;5023094;28;20042;-85
2023/02/19 06:10:11;;;;;;;0.00;0.00;;;;;;;20.22;38.04;101946.69;5022036;28;20064;-86
2023/02/19 06:12:37;;;;;;;0.10;0.10;;;;;;;20.22;38.15;101946.69;5019692;28;20443;-86
2023/02/19 06:15:04;;;;;;;0.10;0.10;;;;;;;20.20;38.10;101960.06;5021083;28;20041;-85
2023/02/19 06:17:31;;;;;;;0.20;0.20;;;;;;;20.23;38.06;101970.31;5013405;28;20046;-85
2023/02/19 06:19:57;;;;;;;0.05;0.05;;;;;;;20.17;37.99;101963.03;5017548;28;20059;-85
2023/02/19 06:22:22;;;;;;;0.10;0.10;;;;;;;20.16;38.17;101971.13;5019056;28;20060;-86
2023/02/19 06:24:48;;;;;;;0.10;0.10;;;;;;;20.18;38.22;101974.44;5018570;28;20589;-84
2023/02/19 06:27:13;;;;;;;0.13;0.10;;;;;;;20.20;38.09;101991.81;5015271;28;20061;-86
2023/02/19 06:29:39;;;;;;;0.10;0.10;;;;;;;20.22;38.00;101981.91;5016673;28;20111;-85
2023/02/19 06:32:05;;;;;;;0.00;0.00;;;;;;;20.16;38.12;102000.19;5015271;28;20049;-86
2023/02/19 06:34:31;;;;;;;0.00;0.00;;;;;;;20.05;38.25;102011.00;5017746;28;20773;-85
2023/02/19 06:36:57;;;;;;;0.00;0.00;;;;;;;20.14;38.05;102031.25;5019214;28;20091;-86
2023/02/19 06:39:23;;;;;;;0.10;0.08;;;;;;;20.13;38.11;102019.84;5012648;28;20057;-85
2023/02/19 06:41:49;;;;;;;0.25;0.10;;;;;;;20.17;38.17;102023.84;5015125;28;20045;-84
2023/02/19 06:44:14;;;;;;;0.00;0.00;;;;;;;20.22;37.97;102028.66;5014309;28;20516;-86
2023/02/19 06:46:40;;;;;;;0.05;0.05;;;;;;;20.20;38.08;102026.19;5019800;28;20041;-85
2023/02/19 06:49:06;;;;;;;0.20;0.10;;;;;;;20.26;37.97;102050.34;5020483;28;20378;-85
2023/02/19 06:51:32;;;;;;;0.00;0.00;;;;;;;20.22;38.05;102049.84;5019395;28;20034;-85
2023/02/19 06:53:58;;;;;;;0.45;0.20;;;;;;;20.09;38.19;102065.25;5012550;28;20030;-86
2023/02/19 06:56:36;;;;;;;0.10;0.10;;;;;;;20.17;37.96;102062.69;5019192;28;20032;-86
2023/02/19 06:59:04;;;;;;;0.00;0.00;;;;;;;20.20;38.05;102075.59;5017061;28;20037;-86
2023/02/19 07:01:31;;;;;;;0.10;0.10;;;;;;;20.18;38.08;102086.34;5016032;28;20033;-87
2023/02/19 07:03:57;;;;;;;0.13;0.13;;;;;;;20.15;38.16;102088.47;5003219;28;20045;-86
2023/02/19 07:06:24;;;;;;;0.03;0.03;;;;;;;20.16;38.13;102095.41;5018688;28;20041;-85
2023/02/19 07:08:51;;;;;;;0.00;0.00;;;;;;;20.16;38.09;102101.53;5029621;28;20045;-86
2023/02/19 07:11:17;;;;;;;0.13;0.13;;;;;;;20.20;38.08;102110.81;5018639;28;20041;-85
2023/02/19 07:13:43;;;;;;;0.00;0.00;;;;;;;20.17;38.15;102112.94;5017155;28;20617;-86
2023/02/19 07:16:10;;;;;;;0.03;0.03;;;;;;;20.21;37.92;102117.78;5015722;28;20068;-87
2023/02/19 07:18:37;;;;;;;0.20;0.20;;;;;;;20.08;38.30;102119.13;5015239;28;20049;-86
2023/02/19 07:21:08;;;;;;;0.10;0.10;;;;;;;20.17;38.16;102119.06;5017721;28;20045;-86
2023/02/19 07:23:34;;;;;;;0.10;0.10;;;;;;;20.13;38.22;102116.88;5011531;28;20030;-86
2023/02/19 07:26:01;;;;;;;0.10;0.00;;;;;;;20.15;38.09;102122.84;5015042;28;20037;-85
2023/02/19 07:28:26;;;;;;;0.20;0.10;;;;;;;20.36;37.79;102123.38;5013422;28;20034;-86
2023/02/19 07:30:52;;;;;;;0.10;0.10;;;;;;;21.18;36.14;102108.91;5018090;28;20099;-85
2023/02/19 07:33:18;;;;;;;0.00;0.00;;;;;;;21.59;35.40;102111.78;5019207;28;20106;-84
2023/02/19 07:35:47;;;;;;;0.10;0.10;;;;;;;21.79;35.04;102109.69;5018927;28;20092;-85
2023/02/19 07:38:20;;;;;;;3.65;3.38;;;;;;;21.71;35.50;102102.53;5013293;28;20490;-86
2023/02/19 07:40:51;;;;;;;0.47;0.47;;;;;;;21.59;35.32;102080.81;5017371;28;20030;-85
2023/02/19 07:43:17;;;;;;;0.80;0.80;;;;;;;21.56;35.56;102098.84;5021612;28;20211;-85
2023/02/19 07:45:42;;;;;;;0.85;0.43;;;;;;;21.45;35.99;102107.91;5015054;28;20610;-86
2023/02/19 07:48:08;;;;;;;0.20;0.17;;;;;;;21.37;36.01;102099.94;5015483;28;20056;-84
2023/02/19 07:50:33;;;;;;;0.10;0.10;;;;;;;21.30;36.43;102101.56;5009527;28;20038;-86
2023/02/19 07:52:59;;;;;;;0.05;0.05;;;;;;;21.16;36.58;102115.34;5013524;28;21312;-86
2023/02/19 07:55:24;;;;;;;0.10;0.10;;;;;;;20.99;36.79;102106.47;5019666;28;20041;-85
2023/02/19 07:57:50;;;;;;;0.13;0.13;;;;;;;20.86;37.17;102119.31;5024841;28;20038;-85
2023/02/19 08:00:15;;;;;;;0.10;0.10;;;;;;;20.72;37.42;102112.78;5027739;28;20511;-85
2023/02/19 08:02:59;;;;;;;0.00;0.00;;;;;;;20.70;37.49;102104.16;5025808;28;20509;-85
2023/02/19 08:05:37;;;;;;;0.05;0.05;;;;;;;20.68;37.74;102117.53;5018837;28;20551;-85
2023/02/19 08:08:12;;;;;;;0.00;0.00;;;;;;;20.66;37.74;102122.16;5020542;28;20705;-86
2023/02/19 08:13:22;;;;;;;0.47;0.30;;;;;;;20.61;37.86;102129.72;5019771;28;20052;-85
2023/02/19 08:15:52;;;;;;;0.50;0.13;;;;;;;20.49;38.11;102139.72;5016973;28;20590;-85
2023/02/19 08:18:20;;;;;;;3.25;3.00;;;;;;;20.51;38.04;102145.69;5019426;28;20075;-85
2023/02/19 08:20:46;;;;;;;1.83;1.73;;;;;;;20.51;38.00;102147.50;5019313;28;20581;-86
2023/02/19 08:23:12;;;;;;;1.88;1.77;;;;;;;20.49;38.07;102157.41;5014432;28;20140;-86
2023/02/19 08:25:39;;;;;;;1.20;1.10;;;;;;;20.49;38.08;102168.84;5017365;28;20037;-86
2023/02/19 08:28:06;;;;;;;1.98;1.85;;;;;;;20.51;38.06;102169.50;5016865;28;20085;-85
2023/02/19 08:30:33;;;;;;;1.23;1.13;;;;;;;20.56;38.01;102178.81;5020727;28;20045;-85
2023/02/19 08:33:00;;;;;;;0.88;0.88;;;;;;;20.58;37.85;102184.78;5020327;28;20044;-86
2023/02/19 08:35:26;;;;;;;0.45;0.40;;;;;;;20.65;37.60;102196.44;5014461;28;20060;-86
2023/02/19 08:37:58;;;;;;;0.85;0.85;;;;;;;20.56;37.86;102184.94;5020423;28;20028;-86
2023/02/19 08:40:24;;;;;;;0.57;0.57;;;;;;;20.58;37.87;102198.00;5021987;28;20065;-87
2023/02/19 08:42:51;;;;;;;0.95;0.90;;;;;;;20.63;37.84;102209.78;5023247;28;20046;-87
2023/02/19 08:45:17;;;;;;;0.40;0.40;;;;;;;20.52;38.05;102199.44;5015945;28;20033;-86
2023/02/19 08:47:42;;;;;;;0.75;0.47;;;;;;;20.54;38.03;102210.72;5021392;28;20037;-86
2023/02/19 08:50:09;;;;;;;0.38;0.38;;;;;;;20.53;38.06;102214.34;5025146;28;20164;-87
2023/02/19 08:52:34;;;;;;;0.28;0.28;;;;;;;20.58;38.09;102227.13;5021310;28;21912;-86
2023/02/19 08:55:01;;;;;;;22.48;20.27;;;;;;;20.48;38.12;102229.84;5017343;28;20045;-87
2023/02/19 08:57:28;;;;;;;0.22;0.20;;;;;;;20.52;37.90;102228.56;5021704;28;20045;-87
2023/02/19 08:59:55;;;;;;;0.20;0.20;;;;;;;20.58;37.97;102243.00;5016375;28;20085;-86
2023/02/19 09:02:24;;;;;;;0.00;0.00;;;;;;;20.54;37.96;102249.56;5019638;28;20693;-87
2023/02/19 09:04:50;;;;;;;0.45;0.30;;;;;;;20.58;37.95;102267.66;5017434;28;20400;-87
2023/02/19 09:07:16;;;;;;;0.10;0.10;;;;;;;20.47;37.91;102258.13;5019351;28;20042;-88
2023/02/19 09:09:41;;;;;;;0.57;0.32;;;;;;;20.43;38.11;102266.47;5019272;28;20041;-88
2023/02/19 09:12:09;;;;;;;0.13;0.13;;;;;;;20.49;38.14;102282.63;5023799;28;20053;-86
2023/02/19 09:14:36;;;;;;;0.20;0.13;;;;;;;20.44;38.23;102295.44;5021196;28;20059;-88
2023/02/19 09:17:03;;;;;;;0.60;0.30;;;;;;;20.43;38.09;102308.81;5019047;28;20050;-88
2023/02/19 09:19:28;;;;;;;0.95;0.80;;;;;;;20.50;37.83;102312.56;5019138;28;20033;-84
2023/02/19 09:21:54;;;;;;;0.45;0.35;;;;;;;19.96;39.49;102303.59;5019246;28;20474;-87
2023/02/19 09:24:20;;;;;;;0.47;0.47;;;;;;;20.28;38.70;102308.44;5023717;28;20049;-87
2023/02/19 09:26:50;;;;;;;0.45;0.45;;;;;;;20.39;38.42;102312.72;5019159;28;20117;-87
2023/02/19 09:29:16;;;;;;;0.75;0.45;;;;;;;20.37;38.26;102318.16;5017786;28;20077;-86
2023/02/19 09:31:42;;;;;;;0.40;0.40;;;;;;;20.46;38.18;102324.41;5018622;28;20692;-87
2023/02/19 09:34:07;;;;;;;0.38;0.30;;;;;;;20.45;38.41;102330.66;5027557;28;20033;-87
2023/02/19 09:36:33;;;;;;;0.40;0.40;;;;;;;20.50;38.16;102341.66;5016440;28;20037;-87
2023/02/19 09:39:00;;;;;;;0.20;0.20;;;;;;;20.48;38.22;102328.59;5020836;28;20606;-86
2023/02/19 09:41:31;;;;;;;0.50;0.43;;;;;;;20.49;38.09;102338.19;5019555;28;20041;-84
2023/02/19 09:43:59;;;;;;;0.20;0.20;;;;;;;20.40;38.28;102338.19;5020369;28;20541;-85
2023/02/19 09:46:29;;;;;;;0.47;0.47;;;;;;;20.43;38.10;102349.34;5020331;28;20054;-84
2023/02/19 09:49:05;;;;;;;0.80;0.57;;;;;;;20.42;38.15;102363.56;5019057;28;20141;-85
2023/02/19 09:51:35;;;;;;;0.52;0.52;;;;;;;20.45;38.14;102365.91;5016942;28;20103;-86
2023/02/19 09:54:03;;;;;;;0.43;0.28;;;;;;;20.41;38.10;102366.34;5022543;28;20091;-85
2023/02/19 09:56:29;;;;;;;0.30;0.30;;;;;;;20.43;38.04;102353.81;5025330;28;20060;-87
2023/02/19 09:58:58;;;;;;;0.57;0.40;;;;;;;20.36;38.16;102348.25;5023306;28;20038;-86
2023/02/19 10:01:29;;;;;;;0.65;0.30;;;;;;;20.27;38.34;102340.34;5025149;28;20037;-86
2023/02/19 10:03:55;;;;;;;0.30;0.30;;;;;;;20.34;38.21;102344.09;5015948;28;20048;-85
2023/02/19 10:06:25;;;;;;;0.40;0.35;;;;;;;20.33;38.25;102348.53;5016018;28;20037;-86
2023/02/19 10:09:10;;;;;;;0.20;0.20;;;;;;;20.31;38.25;102347.03;5014050;28;20132;-85
2023/02/19 10:11:36;;;;;;;0.28;0.25;;;;;;;20.26;38.30;102346.59;5023063;28;20409;-87
2023/02/19 10:14:08;;;;;;;0.20;0.20;;;;;;;20.39;38.14;102363.81;5021215;28;20045;-86
2023/02/19 10:16:39;;;;;;;0.17;0.10;;;;;;;20.35;38.16;102373.03;5024082;28;21115;-86
2023/02/19 10:19:11;;;;;;;0.25;0.25;;;;;;;20.33;38.19;102375.00;5019788;28;20478;-86
2023/02/19 10:21:37;;;;;;;0.30;0.20;;;;;;;20.36;38.08;102371.22;5019077;28;20130;-85
2023/02/19 10:24:05;;;;;;;0.52;0.43;;;;;;;20.29;38.18;102378.06;5022864;28;20045;-86
2023/02/19 10:26:34;;;;;;;0.20;0.20;;;;;;;20.29;38.23;102386.84;5018231;28;20038;-87
2023/02/19 10:29:00;;;;;;;0.40;0.40;;;;;;;20.55;37.72;102392.34;5019299;28;20057;-87
2023/02/19 10:31:26;;;;;;;0.50;0.47;;;;;;;20.57;37.62;102398.31;5025157;28;20684;-87
2023/02/19 10:33:56;;;;;;;0.20;0.20;;;;;;;20.60;37.62;102403.31;5023536;28;20048;-86
2023/02/19 10:36:32;;;;;;;0.08;0.08;;;;;;;20.51;37.84;102396.25;5017297;28;20372;-88
2023/02/19 10:39:00;;;;;;;0.57;0.22;;;;;;;20.47;37.67;102402.84;5020786;28;20045;-86
2023/02/19 10:41:27;;;;;;;0.17;0.17;;;;;;;20.38;37.79;102401.84;5019203;28;20053;-87
2023/02/19 10:43:54;;;;;;;0.35;0.25;;;;;;;20.54;37.82;102400.41;5022508;28;20069;-88
2023/02/19 10:46:28;;;;;;;0.35;0.35;;;;;;;20.42;38.08;102397.94;5021177;28;20041;-88
2023/02/19 10:48:55;;;;;;;0.45;0.45;;;;;;;20.36;38.08;102403.81;5019702;28;21207;-87
2023/02/19 10:51:31;;;;;;;0.10;0.00;;;;;;;20.38;38.06;102411.59;5019277;28;20129;-86
2023/02/19 10:54:33;;;;;;;0.98;0.30;;;;;;;20.28;38.26;102411.59;5016169;28;20214;-86
2023/02/19 10:57:24;;;;;;;0.25;0.25;;;;;;;20.33;38.19;102406.75;5018555;28;20045;-87
2023/02/19 10:59:52;;;;;;;0.57;0.25;;;;;;;20.28;38.28;102411.59;5019946;28;20995;-87
2023/02/19 11:02:20;;;;;;;0.38;0.17;;;;;;;20.30;38.13;102396.47;5018565;28;20038;-87
2023/02/19 11:05:03;;;;;;;0.00;0.00;;;;;;;20.28;38.22;102394.91;5020402;28;20391;-87
2023/02/19 11:07:29;;;;;;;0.20;0.20;;;;;;;20.27;38.11;102399.38;5021247;28;20042;-87
2023/02/19 11:09:57;;;;;;;0.20;0.20;;;;;;;20.17;38.19;102402.06;5023400;28;20069;-86
2023/02/19 11:12:34;;;;;;;0.68;0.13;;;;;;;20.35;38.14;102403.94;5019499;28;20049;-87
2023/02/19 11:15:24;;;;;;;0.22;0.22;;;;;;;20.29;38.04;102412.44;5020492;28;20033;-87
2023/02/19 11:17:57;;;;;;;0.20;0.10;;;;;;;20.23;38.13;102408.56;5038355;28;20061;-87
2023/02/19 11:20:23;;;;;;;0.55;0.32;;;;;;;20.27;38.12;102419.69;5019091;28;20068;-87
2023/02/19 11:22:48;;;;;;;0.30;0.30;;;;;;;20.25;38.14;102406.63;5023485;28;20045;-87
2023/02/19 11:25:14;;;;;;;0.22;0.22;;;;;;;20.36;37.97;102402.97;5022434;28;20054;-86
2023/02/19 11:28:09;;;;;;;0.25;0.20;;;;;;;20.32;37.98;102401.59;5014869;28;20059;-87
2023/02/19 11:30:40;;;;;;;0.30;0.30;;;;;;;20.28;37.95;102406.31;5017037;28;20046;-87
2023/02/19 11:33:15;;;;;;;0.22;0.22;;;;;;;20.23;37.99;102404.13;5023277;28;20096;-87
2023/02/19 11:35:45;;;;;;;0.60;0.40;;;;;;;20.16;38.27;102405.69;5021576;28;20029;-87
2023/02/19 11:38:13;;;;;;;0.40;0.40;;;;;;;20.29;37.87;102409.81;5020731;28;20035;-86
2023/02/19 11:41:03;;;;;;;0.50;0.20;;;;;;;20.20;38.17;102409.69;5018621;28;20579;-86
2023/02/19 11:43:47;;;;;;;0.20;0.20;;;;;;;20.23;37.93;102405.94;5016281;28;20042;-87
2023/02/19 11:46:59;;;;;;;0.47;0.20;;;;;;;20.20;38.14;102393.84;5016741;28;20048;-86
2023/02/19 11:50:06;;;;;;;0.20;0.20;;;;;;;20.19;38.09;102401.91;4955539;28;20058;-86
2023/02/19 11:52:31;;;;;;;0.40;0.20;;;;;;;20.22;38.02;102406.91;5001071;28;20684;-86
2023/02/19 11:55:15;;;;;;;0.40;0.22;;;;;;;20.25;37.96;102409.25;5011442;28;20129;-86
2023/02/19 11:58:00;;;;;;;0.90;0.32;;;;;;;20.16;37.96;102410.97;5007619;28;20079;-86
2023/02/19 12:00:29;;;;;;;0.40;0.40;;;;;;;20.23;37.88;102420.00;5016528;28;20098;-86